sensor_id;sensor_type;location;lat;lon;timestamp;P1;durP1;ratioP1;P2;durP2;ratioP2
4272;SDS011;63887;53.656;9.810;2022-12-18T00:01:59;16.80;;;14.60;;
4272;SDS011;63887;53.656;9.810;2022-12-18T00:04:26;29.73;;;17.80;;
4272;SDS011;63887;53.656;9.810;2022-12-18T00:06:54;20.48;;;14.02;;
4272;SDS011;63887;53.656;9.810;2022-12-18T00:09:20;24.00;;;14.88;;
4272;SDS011;63887;53.656;9.810;2022-12-18T00:11:47;21.02;;;14.50;;
4272;SDS011;63887;53.656;9.810;2022-12-18T00:14:13;25.05;;;14.60;;
4272;SDS011;63887;53.656;9.810;2022-12-18T00:16:42;27.45;;;14.73;;
4272;SDS011;63887;53.656;9.810;2022-12-18T00:19:10;26.98;;;15.57;;
4272;SDS011;63887;53.656;9.810;2022-12-18T00:21:37;28.45;;;14.50;;
4272;SDS011;63887;53.656;9.810;2022-12-18T00:24:08;19.75;;;14.60;;
4272;SDS011;63887;53.656;9.810;2022-12-18T00:26:35;23.70;;;15.20;;
4272;SDS011;63887;53.656;9.810;2022-12-18T00:29:04;20.88;;;14.68;;
4272;SDS011;63887;53.656;9.810;2022-12-18T00:31:32;33.33;;;15.20;;
4272;SDS011;63887;53.656;9.810;2022-12-18T00:33:58;25.52;;;15.60;;
4272;SDS011;63887;53.656;9.810;2022-12-18T00:36:25;21.35;;;14.60;;
4272;SDS011;63887;53.656;9.810;2022-12-18T00:38:54;27.00;;;15.52;;
4272;SDS011;63887;53.656;9.810;2022-12-18T00:41:23;26.70;;;15.80;;
4272;SDS011;63887;53.656;9.810;2022-12-18T00:44:09;21.45;;;12.30;;
4272;SDS011;63887;53.656;9.810;2022-12-18T00:46:37;22.63;;;13.85;;
4272;SDS011;63887;53.656;9.810;2022-12-18T00:49:04;22.00;;;13.98;;
4272;SDS011;63887;53.656;9.810;2022-12-18T00:51:30;20.55;;;13.70;;
4272;SDS011;63887;53.656;9.810;2022-12-18T00:53:57;24.58;;;13.75;;
4272;SDS011;63887;53.656;9.810;2022-12-18T00:56:24;24.67;;;14.38;;
4272;SDS011;63887;53.656;9.810;2022-12-18T00:58:51;26.90;;;14.45;;
4272;SDS011;63887;53.656;9.810;2022-12-18T01:01:17;21.40;;;13.85;;
4272;SDS011;63887;53.656;9.810;2022-12-18T01:03:44;18.30;;;13.60;;
4272;SDS011;63887;53.656;9.810;2022-12-18T01:06:12;30.80;;;15.43;;
4272;SDS011;63887;53.656;9.810;2022-12-18T01:08:40;15.35;;;12.18;;
4272;SDS011;63887;53.656;9.810;2022-12-18T01:11:08;17.23;;;12.63;;
4272;SDS011;63887;53.656;9.810;2022-12-18T01:13:37;19.67;;;13.05;;
4272;SDS011;63887;53.656;9.810;2022-12-18T01:16:03;22.30;;;14.65;;
4272;SDS011;63887;53.656;9.810;2022-12-18T01:18:30;23.52;;;14.65;;
4272;SDS011;63887;53.656;9.810;2022-12-18T01:20:57;19.98;;;15.05;;
4272;SDS011;63887;53.656;9.810;2022-12-18T01:23:24;19.33;;;13.70;;
4272;SDS011;63887;53.656;9.810;2022-12-18T01:25:53;31.45;;;13.90;;
4272;SDS011;63887;53.656;9.810;2022-12-18T01:28:19;20.73;;;13.80;;
4272;SDS011;63887;53.656;9.810;2022-12-18T01:30:47;19.63;;;13.88;;
4272;SDS011;63887;53.656;9.810;2022-12-18T01:33:13;25.67;;;13.10;;
4272;SDS011;63887;53.656;9.810;2022-12-18T01:35:40;25.52;;;12.50;;
4272;SDS011;63887;53.656;9.810;2022-12-18T01:38:07;26.02;;;13.50;;
4272;SDS011;63887;53.656;9.810;2022-12-18T01:40:34;17.40;;;13.27;;
4272;SDS011;63887;53.656;9.810;2022-12-18T01:43:01;21.33;;;15.20;;
4272;SDS011;63887;53.656;9.810;2022-12-18T01:45:27;22.98;;;12.60;;
4272;SDS011;63887;53.656;9.810;2022-12-18T01:47:59;18.00;;;12.80;;
4272;SDS011;63887;53.656;9.810;2022-12-18T01:50:28;13.40;;;11.98;;
4272;SDS011;63887;53.656;9.810;2022-12-18T01:52:59;17.52;;;13.13;;
4272;SDS011;63887;53.656;9.810;2022-12-18T01:55:30;30.42;;;12.27;;
4272;SDS011;63887;53.656;9.810;2022-12-18T01:58:01;22.77;;;12.80;;
4272;SDS011;63887;53.656;9.810;2022-12-18T02:00:28;24.25;;;13.40;;
4272;SDS011;63887;53.656;9.810;2022-12-18T02:02:55;28.90;;;13.48;;
4272;SDS011;63887;53.656;9.810;2022-12-18T02:05:25;19.15;;;12.95;;
4272;SDS011;63887;53.656;9.810;2022-12-18T02:08:07;16.88;;;12.63;;
4272;SDS011;63887;53.656;9.810;2022-12-18T02:10:41;18.30;;;12.90;;
4272;SDS011;63887;53.656;9.810;2022-12-18T02:13:15;22.20;;;13.63;;
4272;SDS011;63887;53.656;9.810;2022-12-18T02:15:49;12.77;;;10.77;;
4272;SDS011;63887;53.656;9.810;2022-12-18T02:18:22;27.77;;;13.85;;
4272;SDS011;63887;53.656;9.810;2022-12-18T02:20:55;22.00;;;13.20;;
4272;SDS011;63887;53.656;9.810;2022-12-18T02:23:35;13.57;;;11.50;;
4272;SDS011;63887;53.656;9.810;2022-12-18T02:26:14;20.25;;;13.13;;
4272;SDS011;63887;53.656;9.810;2022-12-18T02:28:45;18.05;;;11.95;;
4272;SDS011;63887;53.656;9.810;2022-12-18T02:31:18;23.35;;;13.18;;
4272;SDS011;63887;53.656;9.810;2022-12-18T02:33:51;22.52;;;13.65;;
4272;SDS011;63887;53.656;9.810;2022-12-18T02:36:23;21.40;;;12.75;;
4272;SDS011;63887;53.656;9.810;2022-12-18T02:38:51;22.20;;;13.95;;
4272;SDS011;63887;53.656;9.810;2022-12-18T02:41:20;22.63;;;13.57;;
4272;SDS011;63887;53.656;9.810;2022-12-18T02:43:53;20.38;;;12.30;;
4272;SDS011;63887;53.656;9.810;2022-12-18T02:46:30;19.25;;;12.10;;
4272;SDS011;63887;53.656;9.810;2022-12-18T02:49:01;22.25;;;13.40;;
4272;SDS011;63887;53.656;9.810;2022-12-18T02:51:33;19.35;;;12.00;;
4272;SDS011;63887;53.656;9.810;2022-12-18T02:54:09;15.20;;;13.02;;
4272;SDS011;63887;53.656;9.810;2022-12-18T02:56:43;17.70;;;12.05;;
4272;SDS011;63887;53.656;9.810;2022-12-18T02:59:15;15.98;;;11.57;;
4272;SDS011;63887;53.656;9.810;2022-12-18T03:01:49;15.10;;;11.32;;
4272;SDS011;63887;53.656;9.810;2022-12-18T03:04:23;18.08;;;12.25;;
4272;SDS011;63887;53.656;9.810;2022-12-18T03:06:55;22.98;;;11.85;;
4272;SDS011;63887;53.656;9.810;2022-12-18T03:09:24;22.08;;;13.70;;
4272;SDS011;63887;53.656;9.810;2022-12-18T03:11:58;18.88;;;12.27;;
4272;SDS011;63887;53.656;9.810;2022-12-18T03:14:50;21.90;;;12.85;;
4272;SDS011;63887;53.656;9.810;2022-12-18T03:17:22;17.38;;;11.43;;
4272;SDS011;63887;53.656;9.810;2022-12-18T03:19:51;20.35;;;13.15;;
4272;SDS011;63887;53.656;9.810;2022-12-18T03:22:20;18.13;;;12.80;;
4272;SDS011;63887;53.656;9.810;2022-12-18T03:24:49;13.52;;;11.32;;
4272;SDS011;63887;53.656;9.810;2022-12-18T03:27:19;20.80;;;11.30;;
4272;SDS011;63887;53.656;9.810;2022-12-18T03:29:48;20.52;;;13.23;;
4272;SDS011;63887;53.656;9.810;2022-12-18T03:32:20;16.80;;;12.88;;
4272;SDS011;63887;53.656;9.810;2022-12-18T03:34:55;18.92;;;12.07;;
4272;SDS011;63887;53.656;9.810;2022-12-18T03:37:26;23.58;;;13.20;;
4272;SDS011;63887;53.656;9.810;2022-12-18T03:39:59;18.67;;;12.52;;
4272;SDS011;63887;53.656;9.810;2022-12-18T03:42:28;20.17;;;13.38;;
4272;SDS011;63887;53.656;9.810;2022-12-18T03:45:01;19.33;;;11.10;;
4272;SDS011;63887;53.656;9.810;2022-12-18T03:47:34;15.50;;;11.45;;
4272;SDS011;63887;53.656;9.810;2022-12-18T03:50:07;17.23;;;11.40;;
4272;SDS011;63887;53.656;9.810;2022-12-18T03:52:40;14.52;;;11.40;;
4272;SDS011;63887;53.656;9.810;2022-12-18T03:55:11;16.13;;;11.75;;
4272;SDS011;63887;53.656;9.810;2022-12-18T03:57:39;18.35;;;11.15;;
4272;SDS011;63887;53.656;9.810;2022-12-18T04:00:09;23.73;;;13.88;;
4272;SDS011;63887;53.656;9.810;2022-12-18T04:02:39;31.27;;;12.82;;
4272;SDS011;63887;53.656;9.810;2022-12-18T04:05:10;25.15;;;13.07;;
4272;SDS011;63887;53.656;9.810;2022-12-18T04:07:37;13.73;;;10.95;;
4272;SDS011;63887;53.656;9.810;2022-12-18T04:10:05;15.15;;;11.63;;
4272;SDS011;63887;53.656;9.810;2022-12-18T04:12:39;27.13;;;13.07;;
4272;SDS011;63887;53.656;9.810;2022-12-18T04:15:06;22.05;;;11.98;;
4272;SDS011;63887;53.656;9.810;2022-12-18T04:17:34;19.52;;;12.40;;
4272;SDS011;63887;53.656;9.810;2022-12-18T04:20:00;20.70;;;12.75;;
4272;SDS011;63887;53.656;9.810;2022-12-18T04:22:27;21.33;;;12.77;;
4272;SDS011;63887;53.656;9.810;2022-12-18T04:24:53;15.65;;;11.30;;
4272;SDS011;63887;53.656;9.810;2022-12-18T04:27:20;14.55;;;12.75;;
4272;SDS011;63887;53.656;9.810;2022-12-18T04:29:48;31.42;;;12.65;;
4272;SDS011;63887;53.656;9.810;2022-12-18T04:32:14;14.88;;;11.25;;
4272;SDS011;63887;53.656;9.810;2022-12-18T04:34:40;14.32;;;11.50;;
4272;SDS011;63887;53.656;9.810;2022-12-18T04:37:07;17.80;;;13.05;;
4272;SDS011;63887;53.656;9.810;2022-12-18T04:39:33;21.70;;;13.43;;
4272;SDS011;63887;53.656;9.810;2022-12-18T04:42:00;27.40;;;13.00;;
4272;SDS011;63887;53.656;9.810;2022-12-18T04:44:27;19.05;;;12.00;;
4272;SDS011;63887;53.656;9.810;2022-12-18T04:46:54;17.25;;;12.75;;
4272;SDS011;63887;53.656;9.810;2022-12-18T04:49:21;17.70;;;12.93;;
4272;SDS011;63887;53.656;9.810;2022-12-18T04:51:47;20.23;;;12.75;;
4272;SDS011;63887;53.656;9.810;2022-12-18T04:54:14;23.83;;;12.88;;
4272;SDS011;63887;53.656;9.810;2022-12-18T04:56:40;17.77;;;11.68;;
4272;SDS011;63887;53.656;9.810;2022-12-18T04:59:07;23.77;;;13.93;;
4272;SDS011;63887;53.656;9.810;2022-12-18T05:01:33;19.40;;;13.43;;
4272;SDS011;63887;53.656;9.810;2022-12-18T05:04:01;25.45;;;13.55;;
4272;SDS011;63887;53.656;9.810;2022-12-18T05:06:28;18.83;;;13.05;;
4272;SDS011;63887;53.656;9.810;2022-12-18T05:08:54;19.30;;;13.05;;
4272;SDS011;63887;53.656;9.810;2022-12-18T05:11:21;20.33;;;12.93;;
4272;SDS011;63887;53.656;9.810;2022-12-18T05:13:47;23.75;;;14.32;;
4272;SDS011;63887;53.656;9.810;2022-12-18T05:16:14;19.83;;;13.90;;
4272;SDS011;63887;53.656;9.810;2022-12-18T05:18:41;23.05;;;13.65;;
4272;SDS011;63887;53.656;9.810;2022-12-18T05:21:09;28.73;;;13.50;;
4272;SDS011;63887;53.656;9.810;2022-12-18T05:23:36;27.90;;;14.55;;
4272;SDS011;63887;53.656;9.810;2022-12-18T05:26:03;24.63;;;13.30;;
4272;SDS011;63887;53.656;9.810;2022-12-18T05:28:31;15.90;;;13.00;;
4272;SDS011;63887;53.656;9.810;2022-12-18T05:31:00;26.38;;;14.50;;
4272;SDS011;63887;53.656;9.810;2022-12-18T05:33:28;27.30;;;15.45;;
4272;SDS011;63887;53.656;9.810;2022-12-18T05:35:57;22.55;;;15.95;;
4272;SDS011;63887;53.656;9.810;2022-12-18T05:38:28;20.92;;;13.55;;
4272;SDS011;63887;53.656;9.810;2022-12-18T05:40:56;20.73;;;13.57;;
4272;SDS011;63887;53.656;9.810;2022-12-18T05:43:22;20.98;;;14.02;;
4272;SDS011;63887;53.656;9.810;2022-12-18T05:45:50;22.85;;;13.40;;
4272;SDS011;63887;53.656;9.810;2022-12-18T05:48:17;26.77;;;14.90;;
4272;SDS011;63887;53.656;9.810;2022-12-18T05:50:44;17.00;;;12.02;;
4272;SDS011;63887;53.656;9.810;2022-12-18T05:53:12;26.55;;;15.60;;
4272;SDS011;63887;53.656;9.810;2022-12-18T05:55:41;19.77;;;15.02;;
4272;SDS011;63887;53.656;9.810;2022-12-18T05:58:08;27.55;;;14.25;;
4272;SDS011;63887;53.656;9.810;2022-12-18T06:00:37;18.75;;;15.18;;
4272;SDS011;63887;53.656;9.810;2022-12-18T06:03:05;30.45;;;15.88;;
4272;SDS011;63887;53.656;9.810;2022-12-18T06:05:34;15.52;;;13.63;;
4272;SDS011;63887;53.656;9.810;2022-12-18T06:08:01;21.88;;;13.93;;
4272;SDS011;63887;53.656;9.810;2022-12-18T06:10:28;26.60;;;13.90;;
4272;SDS011;63887;53.656;9.810;2022-12-18T06:12:56;21.20;;;14.77;;
4272;SDS011;63887;53.656;9.810;2022-12-18T06:15:22;23.23;;;12.65;;
4272;SDS011;63887;53.656;9.810;2022-12-18T06:17:49;24.42;;;15.07;;
4272;SDS011;63887;53.656;9.810;2022-12-18T06:20:16;30.15;;;16.80;;
4272;SDS011;63887;53.656;9.810;2022-12-18T06:22:42;24.98;;;13.93;;
4272;SDS011;63887;53.656;9.810;2022-12-18T06:25:08;27.10;;;15.02;;
4272;SDS011;63887;53.656;9.810;2022-12-18T06:27:35;26.88;;;15.45;;
4272;SDS011;63887;53.656;9.810;2022-12-18T06:30:03;14.50;;;12.45;;
4272;SDS011;63887;53.656;9.810;2022-12-18T06:32:30;21.15;;;14.07;;
4272;SDS011;63887;53.656;9.810;2022-12-18T06:34:57;28.70;;;12.65;;
4272;SDS011;63887;53.656;9.810;2022-12-18T06:37:23;22.25;;;14.50;;
4272;SDS011;63887;53.656;9.810;2022-12-18T06:39:51;22.88;;;14.73;;
4272;SDS011;63887;53.656;9.810;2022-12-18T06:42:17;26.65;;;14.98;;
4272;SDS011;63887;53.656;9.810;2022-12-18T06:44:51;18.55;;;14.15;;
4272;SDS011;63887;53.656;9.810;2022-12-18T06:47:19;26.52;;;14.02;;
4272;SDS011;63887;53.656;9.810;2022-12-18T06:49:45;25.45;;;14.43;;
4272;SDS011;63887;53.656;9.810;2022-12-18T06:52:11;24.63;;;14.00;;
4272;SDS011;63887;53.656;9.810;2022-12-18T06:54:45;17.90;;;11.93;;
4272;SDS011;63887;53.656;9.810;2022-12-18T06:57:11;27.10;;;13.80;;
4272;SDS011;63887;53.656;9.810;2022-12-18T06:59:38;24.65;;;15.05;;
4272;SDS011;63887;53.656;9.810;2022-12-18T07:02:04;23.85;;;14.90;;
4272;SDS011;63887;53.656;9.810;2022-12-18T07:04:33;21.42;;;13.15;;
4272;SDS011;63887;53.656;9.810;2022-12-18T07:06:59;32.00;;;15.18;;
4272;SDS011;63887;53.656;9.810;2022-12-18T07:09:25;21.38;;;14.63;;
4272;SDS011;63887;53.656;9.810;2022-12-18T07:11:52;19.30;;;13.48;;
4272;SDS011;63887;53.656;9.810;2022-12-18T07:14:18;23.20;;;14.13;;
4272;SDS011;63887;53.656;9.810;2022-12-18T07:16:45;25.25;;;12.68;;
4272;SDS011;63887;53.656;9.810;2022-12-18T07:19:11;38.10;;;15.15;;
4272;SDS011;63887;53.656;9.810;2022-12-18T07:21:39;22.33;;;14.15;;
4272;SDS011;63887;53.656;9.810;2022-12-18T07:24:06;22.67;;;15.55;;
4272;SDS011;63887;53.656;9.810;2022-12-18T07:26:33;18.50;;;14.70;;
4272;SDS011;63887;53.656;9.810;2022-12-18T07:28:59;20.50;;;14.50;;
4272;SDS011;63887;53.656;9.810;2022-12-18T07:31:26;20.98;;;13.52;;
4272;SDS011;63887;53.656;9.810;2022-12-18T07:33:53;25.45;;;15.20;;
4272;SDS011;63887;53.656;9.810;2022-12-18T07:36:19;14.88;;;12.68;;
4272;SDS011;63887;53.656;9.810;2022-12-18T07:38:50;27.35;;;14.85;;
4272;SDS011;63887;53.656;9.810;2022-12-18T07:41:17;28.23;;;14.13;;
4272;SDS011;63887;53.656;9.810;2022-12-18T07:43:44;30.85;;;15.63;;
4272;SDS011;63887;53.656;9.810;2022-12-18T07:46:12;26.67;;;14.48;;
4272;SDS011;63887;53.656;9.810;2022-12-18T07:48:39;24.73;;;14.77;;
4272;SDS011;63887;53.656;9.810;2022-12-18T07:51:07;21.10;;;12.75;;
4272;SDS011;63887;53.656;9.810;2022-12-18T07:53:34;23.05;;;15.15;;
4272;SDS011;63887;53.656;9.810;2022-12-18T07:56:03;24.05;;;14.68;;
4272;SDS011;63887;53.656;9.810;2022-12-18T07:58:31;31.90;;;14.32;;
4272;SDS011;63887;53.656;9.810;2022-12-18T08:01:02;27.80;;;16.13;;
4272;SDS011;63887;53.656;9.810;2022-12-18T08:03:29;25.13;;;14.60;;
4272;SDS011;63887;53.656;9.810;2022-12-18T08:05:57;22.50;;;14.55;;
4272;SDS011;63887;53.656;9.810;2022-12-18T08:08:25;17.15;;;13.90;;
4272;SDS011;63887;53.656;9.810;2022-12-18T08:10:51;24.02;;;15.27;;
4272;SDS011;63887;53.656;9.810;2022-12-18T08:13:19;21.10;;;14.75;;
4272;SDS011;63887;53.656;9.810;2022-12-18T08:15:45;22.10;;;14.90;;
4272;SDS011;63887;53.656;9.810;2022-12-18T08:18:12;16.98;;;12.70;;
4272;SDS011;63887;53.656;9.810;2022-12-18T08:20:38;32.83;;;16.98;;
4272;SDS011;63887;53.656;9.810;2022-12-18T08:23:08;18.92;;;12.73;;
4272;SDS011;63887;53.656;9.810;2022-12-18T08:25:34;24.30;;;13.80;;
4272;SDS011;63887;53.656;9.810;2022-12-18T08:28:00;24.20;;;14.68;;
4272;SDS011;63887;53.656;9.810;2022-12-18T08:30:28;20.73;;;14.10;;
4272;SDS011;63887;53.656;9.810;2022-12-18T08:32:55;17.58;;;13.13;;
4272;SDS011;63887;53.656;9.810;2022-12-18T08:35:21;21.83;;;14.07;;
4272;SDS011;63887;53.656;9.810;2022-12-18T08:37:47;18.60;;;13.55;;
4272;SDS011;63887;53.656;9.810;2022-12-18T08:40:14;20.02;;;14.40;;
4272;SDS011;63887;53.656;9.810;2022-12-18T08:42:40;19.73;;;13.65;;
4272;SDS011;63887;53.656;9.810;2022-12-18T08:45:24;20.23;;;13.75;;
4272;SDS011;63887;53.656;9.810;2022-12-18T08:47:52;23.63;;;14.70;;
4272;SDS011;63887;53.656;9.810;2022-12-18T08:50:19;18.17;;;13.68;;
4272;SDS011;63887;53.656;9.810;2022-12-18T08:52:45;28.08;;;16.50;;
4272;SDS011;63887;53.656;9.810;2022-12-18T08:55:11;20.25;;;13.85;;
4272;SDS011;63887;53.656;9.810;2022-12-18T08:57:38;28.38;;;14.65;;
4272;SDS011;63887;53.656;9.810;2022-12-18T09:00:05;26.58;;;15.13;;
4272;SDS011;63887;53.656;9.810;2022-12-18T09:02:32;17.55;;;14.02;;
4272;SDS011;63887;53.656;9.810;2022-12-18T09:05:00;18.05;;;14.63;;
4272;SDS011;63887;53.656;9.810;2022-12-18T09:07:26;17.98;;;14.75;;
4272;SDS011;63887;53.656;9.810;2022-12-18T09:09:53;19.45;;;14.43;;
4272;SDS011;63887;53.656;9.810;2022-12-18T09:12:20;27.95;;;16.13;;
4272;SDS011;63887;53.656;9.810;2022-12-18T09:14:46;30.90;;;13.55;;
4272;SDS011;63887;53.656;9.810;2022-12-18T09:17:13;31.73;;;15.65;;
4272;SDS011;63887;53.656;9.810;2022-12-18T09:19:39;25.42;;;16.45;;
4272;SDS011;63887;53.656;9.810;2022-12-18T09:22:07;27.83;;;16.90;;
4272;SDS011;63887;53.656;9.810;2022-12-18T09:24:34;25.15;;;15.20;;
4272;SDS011;63887;53.656;9.810;2022-12-18T09:27:01;20.30;;;15.10;;
4272;SDS011;63887;53.656;9.810;2022-12-18T09:29:27;27.40;;;16.13;;
4272;SDS011;63887;53.656;9.810;2022-12-18T09:31:54;25.38;;;16.25;;
4272;SDS011;63887;53.656;9.810;2022-12-18T09:34:20;26.08;;;16.67;;
4272;SDS011;63887;53.656;9.810;2022-12-18T09:36:47;21.88;;;14.18;;
4272;SDS011;63887;53.656;9.810;2022-12-18T09:39:14;31.48;;;15.98;;
4272;SDS011;63887;53.656;9.810;2022-12-18T09:41:42;23.42;;;14.93;;
4272;SDS011;63887;53.656;9.810;2022-12-18T09:44:17;29.95;;;17.17;;
4272;SDS011;63887;53.656;9.810;2022-12-18T09:46:49;22.33;;;14.50;;
4272;SDS011;63887;53.656;9.810;2022-12-18T09:49:20;29.10;;;14.00;;
4272;SDS011;63887;53.656;9.810;2022-12-18T09:51:52;21.23;;;14.45;;
4272;SDS011;63887;53.656;9.810;2022-12-18T09:54:24;26.48;;;15.63;;
4272;SDS011;63887;53.656;9.810;2022-12-18T09:56:53;36.78;;;16.65;;
4272;SDS011;63887;53.656;9.810;2022-12-18T09:59:23;20.27;;;15.30;;
4272;SDS011;63887;53.656;9.810;2022-12-18T10:01:51;25.10;;;16.33;;
4272;SDS011;63887;53.656;9.810;2022-12-18T10:04:17;17.50;;;14.23;;
4272;SDS011;63887;53.656;9.810;2022-12-18T10:06:46;20.42;;;15.35;;
4272;SDS011;63887;53.656;9.810;2022-12-18T10:09:20;25.25;;;15.27;;
4272;SDS011;63887;53.656;9.810;2022-12-18T10:11:56;26.58;;;15.35;;
4272;SDS011;63887;53.656;9.810;2022-12-18T10:14:30;21.95;;;14.13;;
4272;SDS011;63887;53.656;9.810;2022-12-18T10:17:03;25.60;;;16.08;;
4272;SDS011;63887;53.656;9.810;2022-12-18T10:19:41;19.10;;;14.10;;
4272;SDS011;63887;53.656;9.810;2022-12-18T10:22:18;19.63;;;14.50;;
4272;SDS011;63887;53.656;9.810;2022-12-18T10:25:03;22.33;;;15.80;;
4272;SDS011;63887;53.656;9.810;2022-12-18T10:27:39;36.08;;;16.50;;
4272;SDS011;63887;53.656;9.810;2022-12-18T10:30:08;19.83;;;13.52;;
4272;SDS011;63887;53.656;9.810;2022-12-18T10:32:39;23.05;;;16.15;;
4272;SDS011;63887;53.656;9.810;2022-12-18T10:35:07;22.63;;;14.80;;
4272;SDS011;63887;53.656;9.810;2022-12-18T10:40:33;21.50;;;13.88;;
4272;SDS011;63887;53.656;9.810;2022-12-18T10:43:15;20.08;;;13.98;;
4272;SDS011;63887;53.656;9.810;2022-12-18T10:45:58;22.75;;;14.40;;
4272;SDS011;63887;53.656;9.810;2022-12-18T10:48:26;20.10;;;14.13;;
4272;SDS011;63887;53.656;9.810;2022-12-18T10:50:54;23.73;;;13.75;;
4272;SDS011;63887;53.656;9.810;2022-12-18T10:53:21;24.80;;;15.80;;
4272;SDS011;63887;53.656;9.810;2022-12-18T10:55:51;26.40;;;15.80;;
4272;SDS011;63887;53.656;9.810;2022-12-18T10:58:23;26.13;;;15.63;;
4272;SDS011;63887;53.656;9.810;2022-12-18T11:01:02;28.92;;;14.77;;
4272;SDS011;63887;53.656;9.810;2022-12-18T11:03:31;22.90;;;14.77;;
4272;SDS011;63887;53.656;9.810;2022-12-18T11:06:01;19.75;;;14.15;;
4272;SDS011;63887;53.656;9.810;2022-12-18T11:08:29;35.38;;;15.98;;
4272;SDS011;63887;53.656;9.810;2022-12-18T11:10:57;18.52;;;13.57;;
4272;SDS011;63887;53.656;9.810;2022-12-18T11:13:24;22.00;;;15.05;;
4272;SDS011;63887;53.656;9.810;2022-12-18T11:15:52;16.48;;;13.13;;
4272;SDS011;63887;53.656;9.810;2022-12-18T11:18:20;17.45;;;13.38;;
4272;SDS011;63887;53.656;9.810;2022-12-18T11:20:51;24.20;;;14.75;;
4272;SDS011;63887;53.656;9.810;2022-12-18T11:23:19;17.63;;;13.07;;
4272;SDS011;63887;53.656;9.810;2022-12-18T11:25:56;14.80;;;12.68;;
4272;SDS011;63887;53.656;9.810;2022-12-18T11:28:26;16.77;;;12.73;;
4272;SDS011;63887;53.656;9.810;2022-12-18T11:33:46;25.67;;;12.85;;
4272;SDS011;63887;53.656;9.810;2022-12-18T11:36:18;17.33;;;13.15;;
4272;SDS011;63887;53.656;9.810;2022-12-18T11:38:46;20.08;;;14.75;;
4272;SDS011;63887;53.656;9.810;2022-12-18T11:41:18;25.20;;;14.77;;
4272;SDS011;63887;53.656;9.810;2022-12-18T11:44:11;22.60;;;14.45;;
4272;SDS011;63887;53.656;9.810;2022-12-18T11:46:43;17.08;;;13.40;;
4272;SDS011;63887;53.656;9.810;2022-12-18T11:49:15;21.38;;;12.80;;
4272;SDS011;63887;53.656;9.810;2022-12-18T11:51:47;24.52;;;12.35;;
4272;SDS011;63887;53.656;9.810;2022-12-18T11:54:18;15.13;;;11.88;;
4272;SDS011;63887;53.656;9.810;2022-12-18T11:56:47;16.73;;;13.60;;
4272;SDS011;63887;53.656;9.810;2022-12-18T11:59:18;20.35;;;13.88;;
4272;SDS011;63887;53.656;9.810;2022-12-18T12:01:52;15.32;;;11.82;;
4272;SDS011;63887;53.656;9.810;2022-12-18T12:07:19;25.23;;;13.75;;
4272;SDS011;63887;53.656;9.810;2022-12-18T12:09:53;22.10;;;16.00;;
4272;SDS011;63887;53.656;9.810;2022-12-18T12:12:38;25.17;;;14.57;;
4272;SDS011;63887;53.656;9.810;2022-12-18T12:15:18;19.80;;;14.00;;
4272;SDS011;63887;53.656;9.810;2022-12-18T12:17:52;16.65;;;13.15;;
4272;SDS011;63887;53.656;9.810;2022-12-18T12:20:25;29.50;;;14.15;;
4272;SDS011;63887;53.656;9.810;2022-12-18T12:23:00;21.02;;;14.27;;
4272;SDS011;63887;53.656;9.810;2022-12-18T12:25:33;30.75;;;16.33;;
4272;SDS011;63887;53.656;9.810;2022-12-18T12:28:13;21.27;;;14.98;;
4272;SDS011;63887;53.656;9.810;2022-12-18T12:30:48;28.38;;;16.50;;
4272;SDS011;63887;53.656;9.810;2022-12-18T12:33:27;20.40;;;15.25;;
4272;SDS011;63887;53.656;9.810;2022-12-18T12:36:05;18.85;;;14.05;;
4272;SDS011;63887;53.656;9.810;2022-12-18T12:38:41;21.48;;;15.75;;
4272;SDS011;63887;53.656;9.810;2022-12-18T12:41:12;33.92;;;16.85;;
4272;SDS011;63887;53.656;9.810;2022-12-18T12:43:57;20.45;;;15.45;;
4272;SDS011;63887;53.656;9.810;2022-12-18T12:46:25;22.25;;;15.90;;
4272;SDS011;63887;53.656;9.810;2022-12-18T12:48:52;28.05;;;16.88;;
4272;SDS011;63887;53.656;9.810;2022-12-18T12:51:22;21.20;;;15.45;;
4272;SDS011;63887;53.656;9.810;2022-12-18T12:53:51;21.08;;;14.52;;
4272;SDS011;63887;53.656;9.810;2022-12-18T12:56:20;21.05;;;15.82;;
4272;SDS011;63887;53.656;9.810;2022-12-18T12:58:51;21.10;;;15.75;;
4272;SDS011;63887;53.656;9.810;2022-12-18T13:01:27;19.77;;;14.45;;
4272;SDS011;63887;53.656;9.810;2022-12-18T13:04:00;26.10;;;15.32;;
4272;SDS011;63887;53.656;9.810;2022-12-18T13:06:37;27.00;;;15.43;;
4272;SDS011;63887;53.656;9.810;2022-12-18T13:09:10;29.17;;;14.35;;
4272;SDS011;63887;53.656;9.810;2022-12-18T13:11:37;26.17;;;14.80;;
4272;SDS011;63887;53.656;9.810;2022-12-18T13:14:24;24.83;;;14.50;;
4272;SDS011;63887;53.656;9.810;2022-12-18T13:22:47;26.55;;;14.98;;
4272;SDS011;63887;53.656;9.810;2022-12-18T13:25:31;25.13;;;14.45;;
4272;SDS011;63887;53.656;9.810;2022-12-18T13:28:01;27.25;;;14.32;;
4272;SDS011;63887;53.656;9.810;2022-12-18T13:30:41;24.92;;;15.02;;
4272;SDS011;63887;53.656;9.810;2022-12-18T13:36:23;19.83;;;13.90;;
4272;SDS011;63887;53.656;9.810;2022-12-18T13:39:08;18.58;;;13.93;;
4272;SDS011;63887;53.656;9.810;2022-12-18T13:41:48;22.00;;;13.30;;
4272;SDS011;63887;53.656;9.810;2022-12-18T13:44:22;23.60;;;15.50;;
4272;SDS011;63887;53.656;9.810;2022-12-18T13:46:58;35.67;;;16.30;;
4272;SDS011;63887;53.656;9.810;2022-12-18T13:49:28;21.85;;;15.38;;
4272;SDS011;63887;53.656;9.810;2022-12-18T13:52:10;36.47;;;17.48;;
4272;SDS011;63887;53.656;9.810;2022-12-18T13:54:42;22.83;;;15.50;;
4272;SDS011;63887;53.656;9.810;2022-12-18T13:57:24;25.20;;;14.45;;
4272;SDS011;63887;53.656;9.810;2022-12-18T13:59:53;27.73;;;16.05;;
4272;SDS011;63887;53.656;9.810;2022-12-18T14:02:21;28.33;;;15.30;;
4272;SDS011;63887;53.656;9.810;2022-12-18T14:04:49;23.25;;;15.50;;
4272;SDS011;63887;53.656;9.810;2022-12-18T14:07:18;23.30;;;15.88;;
4272;SDS011;63887;53.656;9.810;2022-12-18T14:09:47;30.52;;;17.10;;
4272;SDS011;63887;53.656;9.810;2022-12-18T14:12:17;28.02;;;15.60;;
4272;SDS011;63887;53.656;9.810;2022-12-18T14:15:06;26.23;;;16.02;;
4272;SDS011;63887;53.656;9.810;2022-12-18T14:17:43;27.58;;;16.77;;
4272;SDS011;63887;53.656;9.810;2022-12-18T14:20:12;31.50;;;17.65;;
4272;SDS011;63887;53.656;9.810;2022-12-18T14:22:43;30.25;;;16.98;;
4272;SDS011;63887;53.656;9.810;2022-12-18T14:25:16;31.40;;;17.65;;
4272;SDS011;63887;53.656;9.810;2022-12-18T14:27:45;33.67;;;21.08;;
4272;SDS011;63887;53.656;9.810;2022-12-18T14:30:33;35.80;;;18.10;;
4272;SDS011;63887;53.656;9.810;2022-12-18T14:33:03;27.20;;;16.48;;
4272;SDS011;63887;53.656;9.810;2022-12-18T14:35:30;32.95;;;20.10;;
4272;SDS011;63887;53.656;9.810;2022-12-18T14:38:15;54.78;;;20.65;;
4272;SDS011;63887;53.656;9.810;2022-12-18T14:40:46;35.00;;;19.95;;
4272;SDS011;63887;53.656;9.810;2022-12-18T14:43:13;46.05;;;20.90;;
4272;SDS011;63887;53.656;9.810;2022-12-18T14:45:39;42.55;;;21.42;;
4272;SDS011;63887;53.656;9.810;2022-12-18T14:48:08;41.80;;;20.70;;
4272;SDS011;63887;53.656;9.810;2022-12-18T14:50:39;41.67;;;19.77;;
4272;SDS011;63887;53.656;9.810;2022-12-18T14:53:06;45.42;;;22.13;;
4272;SDS011;63887;53.656;9.810;2022-12-18T14:55:47;36.85;;;22.27;;
4272;SDS011;63887;53.656;9.810;2022-12-18T14:58:14;45.40;;;20.92;;
4272;SDS011;63887;53.656;9.810;2022-12-18T15:00:42;36.70;;;19.85;;
4272;SDS011;63887;53.656;9.810;2022-12-18T15:03:09;38.22;;;18.38;;
4272;SDS011;63887;53.656;9.810;2022-12-18T15:05:37;35.55;;;19.95;;
4272;SDS011;63887;53.656;9.810;2022-12-18T15:11:01;45.78;;;21.50;;